Airfield :







YOU CAN JOIN US ON...

 
LOGIN :

Register | Disclaimer

   EN    FR    IT 

 









Legend :    VFR   Marginal VFR   IFR   Intensive IFR   Very Intensive IFR
Visi :
Ceiling :
>= 8 km
>= 3000ft
5 to 8 km
1000 to 3000 ft
1500m to 5 km
500 to 1000 ft
800 to 1500m
200 to 500 ft
< 800m
< 200 ft
Symbols :   Thunderstorms  Fog  Heavy snow  Heavy precipitations  Wind > 20 kt






- Airport Elevation : 38 ft
- IATA code : YMH


CYMH - Mary's Harbour

CURRENT METAR :
  • 302300Z AUTO 19008KT 150V220 9SM BKN180 BKN200 OVC240 19/17 A2957 RMK SLP016 DENSITY ALT 900FT

EXPIRED METARs :
  • 302200Z AUTO 19013G23KT 9SM SCT038 BKN190 OVC240 21/17 A2961 RMK SLP029 DENSITY ALT 1100FT
  • 302100Z AUTO 22017G26KT 9SM BKN190 OVC210 22/18 A2964 RMK SLP038 DENSITY ALT 1100FT
  • 302024Z AUTO 21014G23KT 9SM FEW019 BKN026 BKN045 OVC220 21/18 A2966 RMK SLP046 DENSITY ALT 1000FT

TAF TAF CYMH
Valid from the 30 at 14:00 until the 01 at 02:00 UTC


301339Z 3014/0102 24015G25KT P6SM SCT015 OVC160
TEMPO 3014/3022 BKN015 BKN160
BECMG 3015/3017 24020G30KT
FM302200 22020G30KT P6SM SCT015 OVC160
TEMPO 3022/0102 BKN015 BKN160
BECMG 3023/0101 18020G30KT RMK FCST BASED ON AUTO OBS. NXT FCST BY 302000Z
CZQX FIR / North America



MET'MAP, your aeronautical weather chart ! - Copyright ORBIFLY December 2007 - Disclaimer

ORBIFLY MET'MAP TEAM :

Programming & Development : Alexandra Zaïnal
Concept & original design : Baudouin d'Aumeries
Assistance for programming : Marc-Olivier Méhu
Technical & hardware support : Manuel Goepfert

Contact : metmap@orbifly.com




SOURCES & CREDITS :

   NOAA